Time;durP1;ratioP1;P1;durP2;ratioP2;P2;SDS_P1;SDS_P2;PMS_P1;PMS_P2;Temp;Humidity;BMP_temperature;BMP_pressure;BME280_temperature;BME280_humidity;BME280_pressure;Samples;Min_cycle;Max_cycle;Signal;HPM_P1;HPM_P2
2022/06/23 00:00:30;;;;;;;6.25;4.30;;;15.70;99.90;;;;;;5038990;28;20033;-63
2022/06/23 00:02:58;;;;;;;7.82;4.05;;;15.70;99.90;;;;;;5019899;28;20037;-65
2022/06/23 00:05:26;;;;;;;8.13;4.13;;;15.70;99.90;;;;;;5042329;28;21148;-65
2022/06/23 00:07:57;;;;;;;6.57;3.70;;;15.70;99.90;;;;;;5020578;28;20072;-64
2022/06/23 00:10:39;;;;;;;6.60;4.30;;;15.80;99.90;;;;;;5042164;28;20100;-64
2022/06/23 00:13:21;;;;;;;7.00;4.13;;;15.70;99.90;;;;;;5040243;28;20406;-63
2022/06/23 00:15:49;;;;;;;7.30;4.90;;;15.70;99.90;;;;;;5017273;28;20123;-65
2022/06/23 00:18:24;;;;;;;6.68;4.53;;;15.60;99.90;;;;;;5040722;28;20120;-64
2022/06/23 00:21:00;;;;;;;8.13;4.55;;;15.50;99.90;;;;;;5039933;28;20036;-63
2022/06/23 00:23:33;;;;;;;7.05;4.82;;;15.50;99.90;;;;;;5038143;28;20034;-64
2022/06/23 00:26:11;;;;;;;7.35;4.57;;;15.40;99.90;;;;;;5020249;28;20077;-64
2022/06/23 00:28:41;;;;;;;6.45;4.40;;;15.40;99.90;;;;;;5037423;28;20033;-64
2022/06/23 00:31:27;;;;;;;6.80;4.35;;;15.30;99.90;;;;;;5021417;28;20060;-64
2022/06/23 00:33:54;;;;;;;8.07;4.70;;;15.30;99.90;;;;;;5036364;28;20045;-64
2022/06/23 00:36:43;;;;;;;6.47;4.53;;;15.30;99.90;;;;;;5044121;28;20048;-64
2022/06/23 00:39:35;;;;;;;7.47;4.68;;;15.30;99.90;;;;;;5019386;28;20164;-64
2022/06/23 00:42:16;;;;;;;7.30;4.65;;;15.30;99.90;;;;;;5038050;28;20095;-64
2022/06/23 00:45:11;;;;;;;9.35;4.72;;;15.30;99.90;;;;;;5036018;28;20117;-64
2022/06/23 00:47:49;;;;;;;9.27;5.25;;;15.30;99.90;;;;;;5037467;28;20493;-63
2022/06/23 00:50:18;;;;;;;6.15;4.55;;;15.30;99.90;;;;;;5037054;28;20119;-64
2022/06/23 00:53:02;;;;;;;6.38;4.60;;;15.30;99.90;;;;;;5039158;28;20041;-64
2022/06/23 00:55:34;;;;;;;;;;;15.30;99.90;;;;;;5020802;28;20041;-64
2022/06/23 00:58:03;;;;;;;7.28;4.80;;;15.20;99.90;;;;;;5020977;28;19948;-64
2022/06/23 01:00:38;;;;;;;9.85;6.03;;;15.30;99.90;;;;;;5035435;28;20045;-64
2022/06/23 01:03:32;;;;;;;9.30;6.07;;;15.30;99.90;;;;;;5038099;28;20072;-63
2022/06/23 01:06:05;;;;;;;9.95;6.93;;;15.20;99.90;;;;;;5036359;28;20056;-64
2022/06/23 01:09:07;;;;;;;10.23;6.55;;;15.10;99.90;;;;;;5037253;28;20053;-63
2022/06/23 01:11:43;;;;;;;7.90;5.93;;;15.00;99.90;;;;;;5037715;28;20489;-63
2022/06/23 01:14:29;;;;;;;8.95;5.93;;;15.10;99.90;;;;;;5034143;28;20064;-63
2022/06/23 01:17:20;;;;;;;7.43;5.45;;;15.00;99.90;;;;;;5020268;28;20041;-63
2022/06/23 01:19:58;;;;;;;7.90;5.18;;;15.00;99.90;;;;;;5040770;28;20095;-63
2022/06/23 01:22:45;;;;;;;7.55;5.43;;;15.00;99.90;;;;;;5036731;28;20111;-64
2022/06/23 01:25:17;;;;;;;7.82;5.53;;;14.90;99.90;;;;;;5033233;28;20120;-63
2022/06/23 01:28:01;;;;;;;7.45;4.80;;;14.90;99.90;;;;;;5037284;28;20033;-63
2022/06/23 01:30:30;;;;;;;;;;;14.90;99.90;;;;;;5042061;28;20064;-63
2022/06/23 01:33:40;;;;;;;7.38;5.32;;;14.90;99.90;;;;;;5035296;28;19924;-62
2022/06/23 01:36:18;;;;;;;6.57;5.18;;;14.90;99.90;;;;;;5037529;28;20041;-63
2022/06/23 01:39:00;;;;;;;7.63;5.25;;;14.90;99.90;;;;;;5036531;28;20126;-63
2022/06/23 01:41:51;;;;;;;8.38;5.40;;;14.90;99.90;;;;;;5032846;28;20088;-63
2022/06/23 01:44:26;;;;;;;9.40;5.85;;;14.90;99.90;;;;;;5035782;28;20076;-63
2022/06/23 01:46:55;;;;;;;8.93;5.35;;;14.80;99.90;;;;;;5037467;28;20079;-63
2022/06/23 01:49:26;;;;;;;6.60;5.32;;;14.80;99.90;;;;;;5038052;28;20035;-62
2022/06/23 01:51:54;;;;;;;9.82;6.10;;;14.70;99.90;;;;;;5037085;28;20041;-63
2022/06/23 01:54:20;;;;;;;9.73;6.25;;;14.70;99.90;;;;;;5041516;28;20073;-63
2022/06/23 01:57:04;;;;;;;7.55;5.95;;;14.70;99.90;;;;;;5032721;28;20096;-62
2022/06/23 02:00:11;;;;;;;8.50;6.00;;;14.60;99.90;;;;;;5014903;28;20740;-63
2022/06/23 02:02:45;;;;;;;8.40;5.78;;;14.60;99.90;;;;;;5018543;28;20049;-62
2022/06/23 02:05:46;;;;;;;9.48;5.90;;;14.60;99.90;;;;;;5022447;28;20052;-62
2022/06/23 02:08:35;;;;;;;7.88;6.10;;;14.60;99.90;;;;;;5037975;28;20034;-63
2022/06/23 02:11:13;;;;;;;8.77;6.50;;;14.60;99.90;;;;;;5042855;28;20366;-62
2022/06/23 02:13:45;;;;;;;8.75;6.38;;;14.60;99.90;;;;;;5039114;28;20458;-63
2022/06/23 02:16:22;;;;;;;11.80;6.85;;;14.60;99.90;;;;;;5041823;28;20048;-62
2022/06/23 02:18:59;;;;;;;9.20;6.80;;;14.50;99.90;;;;;;5041428;28;20182;-63
2022/06/23 02:21:35;;;;;;;9.48;6.93;;;14.40;99.90;;;;;;5039116;28;20056;-62
2022/06/23 02:24:29;;;;;;;8.48;6.72;;;14.40;99.90;;;;;;5040312;28;20033;-64
2022/06/23 02:26:58;;;;;;;8.55;6.47;;;14.30;99.90;;;;;;5040856;28;20459;-63
2022/06/23 02:29:34;;;;;;;8.93;6.85;;;14.30;99.90;;;;;;5037380;28;20057;-62
2022/06/23 02:32:13;;;;;;;9.52;6.50;;;14.30;99.90;;;;;;5039467;28;20111;-62
2022/06/23 02:34:46;;;;;;;9.38;6.43;;;14.30;99.90;;;;;;5041554;28;20041;-63
2022/06/23 02:37:49;;;;;;;8.02;6.78;;;14.20;99.90;;;;;;5022156;28;20049;-63
2022/06/23 02:40:16;;;;;;;9.75;6.80;;;14.20;99.90;;;;;;5040065;28;20041;-63
2022/06/23 02:42:42;;;;;;;9.73;6.70;;;14.20;99.90;;;;;;5040044;28;20053;-63
2022/06/23 02:45:38;;;;;;;10.48;6.63;;;14.20;99.90;;;;;;5022467;28;20048;-62
2022/06/23 02:48:14;;;;;;;8.25;6.82;;;14.20;99.90;;;;;;5041215;28;20064;-64
2022/06/23 02:51:00;;;;;;;9.32;6.90;;;14.20;99.90;;;;;;5042149;28;20523;-63
2022/06/23 02:54:01;;;;;;;10.35;7.38;;;14.20;99.90;;;;;;5043659;28;20041;-63
2022/06/23 02:56:29;;;;;;;7.95;6.50;;;14.20;99.90;;;;;;5029535;28;20509;-63
2022/06/23 02:59:07;;;;;;;12.13;7.40;;;14.10;99.90;;;;;;5024524;28;20083;-62
2022/06/23 03:01:51;;;;;;;7.88;6.35;;;14.10;99.90;;;;;;5023804;28;20042;-62
2022/06/23 03:04:23;;;;;;;7.70;6.55;;;14.10;99.90;;;;;;5023420;28;20037;-64
2022/06/23 03:07:00;;;;;;;10.43;7.53;;;14.20;99.90;;;;;;5037749;28;20362;-64
2022/06/23 03:09:37;;;;;;;9.27;6.72;;;14.20;99.90;;;;;;5041673;28;20042;-63
2022/06/23 03:12:25;;;;;;;8.43;6.88;;;14.10;99.90;;;;;;5040241;28;20033;-62
2022/06/23 03:15:03;;;;;;;8.30;6.78;;;14.00;99.90;;;;;;5035149;28;20473;-62
2022/06/23 03:17:37;;;;;;;9.80;7.28;;;14.10;99.90;;;;;;5040611;28;20041;-63
2022/06/23 03:20:30;;;;;;;9.25;7.63;;;14.00;99.90;;;;;;5021706;28;20049;-63
2022/06/23 03:23:09;;;;;;;10.45;8.13;;;14.00;99.90;;;;;;5033039;28;20057;-63
2022/06/23 03:25:42;;;;;;;11.13;7.60;;;13.90;99.90;;;;;;5036279;28;20562;-62
2022/06/23 03:28:25;;;;;;;9.60;7.70;;;14.00;99.90;;;;;;5039938;28;20040;-62
2022/06/23 03:31:16;;;;;;;11.70;8.13;;;14.00;99.90;;;;;;5040870;28;20089;-63
2022/06/23 03:33:57;;;;;;;9.82;7.10;;;13.90;99.90;;;;;;5041694;28;20037;-64
2022/06/23 03:36:41;;;;;;;10.50;7.93;;;14.00;99.90;;;;;;5041982;28;20037;-62
2022/06/23 03:42:05;;;;;;;11.13;7.47;;;13.90;99.90;;;;;;5036686;28;19928;-63
2022/06/23 03:44:42;;;;;;;11.85;7.72;;;13.90;99.90;;;;;;5026077;28;20481;-63
2022/06/23 03:47:49;;;;;;;13.75;8.10;;;13.80;99.90;;;;;;5042857;28;20060;-62
2022/06/23 03:50:21;;;;;;;11.35;8.25;;;13.80;99.90;;;;;;5039998;28;20449;-63
2022/06/23 03:52:54;;;;;;;11.55;8.55;;;13.80;99.90;;;;;;5041434;28;20069;-63
2022/06/23 03:55:37;;;;;;;9.82;8.15;;;13.90;99.90;;;;;;5037582;28;20030;-63
2022/06/23 03:58:14;;;;;;;12.80;8.32;;;13.80;99.90;;;;;;5030034;28;20069;-64
2022/06/23 04:00:58;;;;;;;13.00;8.95;;;13.80;99.90;;;;;;5038879;28;20033;-63
2022/06/23 04:03:47;;;;;;;10.68;7.60;;;13.80;99.90;;;;;;5037510;28;20068;-63
2022/06/23 04:06:30;;;;;;;9.50;7.35;;;13.80;99.90;;;;;;5038191;28;20029;-63
2022/06/23 04:09:27;;;;;;;11.07;8.27;;;13.80;99.90;;;;;;5039863;28;20038;-63
2022/06/23 04:12:12;;;;;;;10.70;7.55;;;13.80;99.90;;;;;;5007222;28;20043;-64
2022/06/23 04:14:55;;;;;;;10.40;7.82;;;13.80;99.90;;;;;;5034361;28;20465;-63
2022/06/23 04:17:33;;;;;;;11.52;7.53;;;13.90;99.90;;;;;;5038736;28;20368;-64
2022/06/23 04:20:16;;;;;;;11.45;8.35;;;13.90;99.90;;;;;;5022645;28;20148;-63
2022/06/23 04:22:59;;;;;;;9.25;7.20;;;14.00;99.90;;;;;;5015189;28;20100;-63
2022/06/23 04:25:39;;;;;;;10.95;7.68;;;14.10;99.90;;;;;;5015746;28;20030;-63
2022/06/23 04:28:05;;;;;;;10.75;8.40;;;14.20;99.90;;;;;;5020982;28;20034;-64
2022/06/23 04:30:38;;;;;;;10.85;7.35;;;14.20;99.90;;;;;;5018293;28;20037;-63
2022/06/23 04:33:06;;;;;;;10.43;7.43;;;14.20;99.90;;;;;;5020795;28;20045;-64
2022/06/23 04:35:36;;;;;;;10.27;7.35;;;14.20;99.90;;;;;;5018507;28;20090;-63
2022/06/23 04:38:11;;;;;;;9.80;7.82;;;14.30;99.90;;;;;;5000539;28;20042;-64
2022/06/23 04:40:43;;;;;;;10.50;7.40;;;14.30;99.90;;;;;;5014904;28;20129;-63
2022/06/23 04:43:39;;;;;;;10.90;7.43;;;14.30;99.90;;;;;;5017705;28;20041;-63
2022/06/23 04:46:07;;;;;;;12.70;7.50;;;14.40;99.90;;;;;;5018533;28;20045;-64
2022/06/23 04:48:39;;;;;;;9.98;7.70;;;14.50;99.90;;;;;;5001170;28;20037;-63
2022/06/23 04:51:16;;;;;;;12.23;8.23;;;14.50;99.90;;;;;;5013842;28;20029;-64
2022/06/23 04:53:46;;;;;;;11.30;7.35;;;14.60;99.90;;;;;;5005068;28;20056;-63
2022/06/23 04:56:20;;;;;;;10.88;7.65;;;14.70;99.90;;;;;;5006046;28;20479;-63
2022/06/23 04:58:59;;;;;;;9.05;7.68;;;15.10;99.90;;;;;;5015938;28;20033;-63
2022/06/23 05:01:39;;;;;;;10.32;7.47;;;15.60;99.90;;;;;;5009211;28;20396;-65
2022/06/23 05:04:12;;;;;;;8.88;7.03;;;16.00;99.90;;;;;;4995037;28;20652;-64
2022/06/23 05:06:43;;;;;;;9.23;6.53;;;16.90;99.90;;;;;;5000738;28;20073;-63
2022/06/23 05:09:39;;;;;;;9.40;6.78;;;18.00;99.90;;;;;;5022475;28;20530;-63
2022/06/23 05:12:29;;;;;;;10.13;6.75;;;19.00;99.90;;;;;;5006223;28;20034;-65
2022/06/23 05:15:13;;;;;;;9.00;6.80;;;19.90;99.90;;;;;;4999285;28;20056;-63
2022/06/23 05:17:47;;;;;;;8.45;6.32;;;20.50;99.90;;;;;;4991568;28;20037;-65
2022/06/23 05:20:27;;;;;;;11.23;7.50;;;20.90;99.90;;;;;;5034921;28;20045;-64
2022/06/23 05:22:53;;;;;;;8.57;6.30;;;21.40;99.90;;;;;;5029701;28;20078;-64
2022/06/23 05:25:24;;;;;;;6.90;5.78;;;21.80;99.90;;;;;;5037561;28;20065;-64
2022/06/23 05:27:51;;;;;;;8.57;6.63;;;22.10;99.90;;;;;;5036437;28;20475;-63
2022/06/23 05:30:28;;;;;;;8.60;5.95;;;22.30;99.90;;;;;;5040651;28;20038;-63
2022/06/23 05:33:00;;;;;;;8.75;6.13;;;22.60;99.90;;;;;;5032885;28;20044;-63
2022/06/23 05:35:35;;;;;;;8.88;6.70;;;23.00;99.90;;;;;;5040807;28;20083;-63
2022/06/23 05:38:21;;;;;;;8.40;6.32;;;22.90;99.90;;;;;;5024347;28;20049;-64
2022/06/23 05:40:54;;;;;;;9.68;6.30;;;23.10;99.90;;;;;;5041453;28;20040;-63
2022/06/23 05:43:20;;;;;;;8.27;6.03;;;23.30;99.90;;;;;;5037109;28;20044;-65
2022/06/23 05:45:58;;;;;;;9.07;5.90;;;23.50;99.90;;;;;;5034111;28;20178;-63
2022/06/23 05:48:38;;;;;;;8.07;6.45;;;23.80;99.90;;;;;;5035256;28;20474;-63
2022/06/23 05:51:10;;;;;;;8.30;6.07;;;24.10;99.90;;;;;;5038985;28;21601;-66
2022/06/23 05:53:53;;;;;;;8.23;5.80;;;24.40;99.90;;;;;;5022925;28;20048;-64
2022/06/23 05:56:29;;;;;;;12.45;5.97;;;24.50;99.90;;;;;;5038992;28;20108;-64
2022/06/23 05:59:05;;;;;;;8.88;5.63;;;24.70;99.90;;;;;;5041202;28;20443;-64
2022/06/23 06:01:58;;;;;;;8.70;5.97;;;25.00;99.90;;;;;;5040463;28;20232;-63
2022/06/23 06:04:35;;;;;;;9.35;6.35;;;24.90;99.90;;;;;;5043764;28;20046;-64
2022/06/23 06:07:02;;;;;;;11.48;6.35;;;25.40;99.90;;;;;;5018672;28;20072;-63
2022/06/23 06:09:40;;;;;;;12.00;6.43;;;25.80;99.90;;;;;;5039850;28;20486;-62
2022/06/23 06:12:22;;;;;;;8.15;5.60;;;25.60;99.90;;;;;;5048904;28;20047;-63
2022/06/23 06:14:54;;;;;;;10.05;6.15;;;25.60;99.90;;;;;;5041537;28;20064;-64
2022/06/23 06:17:23;;;;;;;7.38;5.78;;;25.80;99.30;;;;;;5043204;28;20025;-63
2022/06/23 06:19:51;;;;;;;8.93;5.63;;;26.00;99.60;;;;;;5042435;28;20068;-64
2022/06/23 06:22:43;;;;;;;10.10;6.30;;;26.20;99.30;;;;;;5039137;28;20120;-65
2022/06/23 06:25:26;;;;;;;8.27;5.35;;;26.50;99.00;;;;;;5024707;28;20037;-63
2022/06/23 06:27:54;;;;;;;7.97;5.25;;;26.70;98.50;;;;;;5039851;28;20088;-64
2022/06/23 06:30:27;;;;;;;7.95;6.07;;;26.90;98.70;;;;;;5023415;28;20112;-64
2022/06/23 06:32:54;;;;;;;8.30;5.73;;;27.10;98.20;;;;;;5038979;28;20453;-64
2022/06/23 06:35:42;;;;;;;8.75;6.03;;;27.30;97.70;;;;;;5042515;28;20272;-64
2022/06/23 06:38:14;;;;;;;8.70;5.45;;;27.60;97.00;;;;;;5040213;28;20730;-64
2022/06/23 06:40:44;;;;;;;10.88;5.45;;;27.40;97.40;;;;;;5039093;28;20030;-63
2022/06/23 06:43:17;;;;;;;7.95;5.97;;;27.40;97.50;;;;;;5035739;28;20033;-63
2022/06/23 06:45:43;;;;;;;8.55;6.22;;;27.40;97.10;;;;;;5041143;28;20137;-64
2022/06/23 06:48:16;;;;;;;9.02;5.90;;;27.40;96.70;;;;;;5038260;28;20037;-63
2022/06/23 06:50:55;;;;;;;9.50;6.27;;;27.30;96.70;;;;;;5038039;28;20421;-63
2022/06/23 06:53:27;;;;;;;7.30;6.13;;;27.30;96.20;;;;;;5036415;28;20281;-63
2022/06/23 06:56:06;;;;;;;7.20;5.40;;;27.40;96.90;;;;;;5042699;28;20116;-62
2022/06/23 06:58:58;;;;;;;10.48;5.95;;;27.40;96.80;;;;;;5036643;28;20081;-62
2022/06/23 07:01:25;;;;;;;8.10;5.93;;;27.40;96.10;;;;;;4987520;28;20068;-62
2022/06/23 07:03:53;;;;;;;12.18;6.18;;;27.20;97.20;;;;;;5040662;28;20032;-62
2022/06/23 07:06:31;;;;;;;9.52;5.63;;;26.60;97.70;;;;;;5024224;28;20208;-63
2022/06/23 07:09:28;;;;;;;7.32;6.15;;;26.20;98.00;;;;;;5040575;28;20029;-63
2022/06/23 07:12:00;;;;;;;9.55;5.82;;;25.60;98.00;;;;;;5008875;28;20053;-62
2022/06/23 07:14:47;;;;;;;8.45;5.60;;;25.30;98.70;;;;;;5034340;28;20049;-62
2022/06/23 07:17:38;;;;;;;9.32;5.43;;;25.00;99.10;;;;;;5038818;28;20037;-63
2022/06/23 07:20:24;;;;;;;8.60;5.60;;;25.20;99.30;;;;;;5039481;28;20385;-62
2022/06/23 07:23:00;;;;;;;6.57;5.22;;;25.30;99.20;;;;;;5037389;28;20451;-62
2022/06/23 07:25:39;;;;;;;8.05;5.60;;;25.30;99.40;;;;;;5038841;28;20021;-64
2022/06/23 07:28:11;;;;;;;8.23;5.70;;;25.40;99.30;;;;;;5040472;28;20654;-62
2022/06/23 07:30:48;;;;;;;9.00;5.93;;;25.40;99.30;;;;;;5041055;28;20079;-63
2022/06/23 07:33:18;;;;;;;8.73;5.07;;;25.50;99.30;;;;;;5008058;28;20045;-62
2022/06/23 07:35:56;;;;;;;7.93;4.90;;;25.60;99.10;;;;;;5045139;28;20033;-62
2022/06/23 07:38:47;;;;;;;10.10;5.63;;;25.80;99.10;;;;;;5042826;28;20037;-63
2022/06/23 07:41:19;;;;;;;9.02;5.00;;;25.90;98.80;;;;;;5036436;28;20116;-62
2022/06/23 07:43:54;;;;;;;6.80;5.40;;;26.10;98.80;;;;;;5039220;28;20045;-63
2022/06/23 07:46:20;;;;;;;7.70;5.65;;;26.20;98.80;;;;;;5041209;28;20037;-62
2022/06/23 07:48:46;;;;;;;10.52;5.55;;;26.30;98.70;;;;;;5041122;28;20117;-62
2022/06/23 07:51:12;;;;;;;10.25;5.10;;;26.20;98.50;;;;;;5042643;28;20045;-62
2022/06/23 07:53:42;;;;;;;9.00;5.47;;;26.20;98.40;;;;;;5044114;28;20037;-63
2022/06/23 07:56:14;;;;;;;7.30;5.05;;;26.20;98.30;;;;;;5039693;28;20594;-63
2022/06/23 07:58:42;;;;;;;7.05;4.85;;;26.20;98.30;;;;;;5040305;28;20419;-63
2022/06/23 08:01:12;;;;;;;6.80;5.30;;;26.10;98.40;;;;;;5041057;28;20323;-63
2022/06/23 08:03:52;;;;;;;9.50;4.63;;;26.20;98.10;;;;;;5036758;28;20112;-63
2022/06/23 08:06:21;;;;;;;7.45;4.88;;;26.10;98.20;;;;;;5043156;28;20109;-64
2022/06/23 08:08:49;;;;;;;6.25;4.38;;;26.00;98.10;;;;;;5041067;28;20029;-63
2022/06/23 08:14:36;;;;;;;6.22;4.07;;;26.10;98.40;;;;;;5031520;28;20077;-63
2022/06/23 08:17:08;;;;;;;7.28;4.35;;;26.20;97.50;;;;;;5029831;28;20081;-60
2022/06/23 08:19:45;;;;;;;7.78;4.28;;;26.30;97.40;;;;;;5016788;28;20056;-61
2022/06/23 08:22:21;;;;;;;7.43;4.00;;;26.30;97.10;;;;;;5036476;28;20095;-60
2022/06/23 08:24:50;;;;;;;5.47;3.72;;;26.40;97.40;;;;;;5039404;28;20117;-62
2022/06/23 08:27:20;;;;;;;6.40;4.20;;;26.50;96.80;;;;;;5039415;28;20483;-62
2022/06/23 08:29:53;;;;;;;5.90;3.53;;;26.50;96.90;;;;;;5040135;28;20082;-62
2022/06/23 08:32:20;;;;;;;7.60;4.13;;;26.60;97.30;;;;;;5042781;28;20051;-63
2022/06/23 08:35:07;;;;;;;7.40;4.47;;;26.60;96.60;;;;;;5039622;28;20477;-63
2022/06/23 08:37:58;;;;;;;7.85;4.65;;;26.70;96.90;;;;;;5035880;28;20466;-63
2022/06/23 08:40:45;;;;;;;6.15;4.03;;;26.70;97.00;;;;;;5039841;28;20048;-62
2022/06/23 08:43:32;;;;;;;7.75;4.20;;;26.60;97.20;;;;;;5037424;28;20046;-62
2022/06/23 08:46:20;;;;;;;6.90;4.72;;;26.70;97.30;;;;;;5039701;28;20037;-64
2022/06/23 08:48:59;;;;;;;6.82;4.38;;;26.70;97.00;;;;;;5036263;28;20401;-61
2022/06/23 08:51:46;;;;;;;6.80;4.78;;;26.80;97.20;;;;;;5042202;28;20052;-61
2022/06/23 08:54:51;;;;;;;6.03;4.22;;;26.90;97.20;;;;;;5050251;28;20040;-61
2022/06/23 08:57:34;;;;;;;6.35;5.00;;;26.90;97.00;;;;;;5019167;28;20049;-62
2022/06/23 09:00:02;;;;;;;7.38;4.22;;;27.00;96.90;;;;;;5031772;28;20052;-62
2022/06/23 09:02:59;;;;;;;7.63;4.22;;;27.00;97.10;;;;;;5049119;28;20085;-62
2022/06/23 09:05:49;;;;;;;9.32;5.32;;;27.10;97.30;;;;;;5051310;28;20037;-61
2022/06/23 09:08:15;;;;;;;7.07;4.45;;;27.10;97.30;;;;;;5049338;28;20036;-61
2022/06/23 09:11:03;;;;;;;7.78;4.78;;;27.10;97.40;;;;;;5048184;28;20401;-62
2022/06/23 09:13:38;;;;;;;8.65;4.72;;;27.10;97.20;;;;;;5050863;28;20045;-61
2022/06/23 09:16:49;;;;;;;9.77;4.28;;;27.10;97.40;;;;;;5052280;28;20045;-61
2022/06/23 09:19:40;;;;;;;6.20;4.55;;;27.30;97.00;;;;;;5042323;28;20053;-61
2022/06/23 09:22:34;;;;;;;7.22;4.00;;;27.40;96.90;;;;;;5035680;28;20065;-61
2022/06/23 09:25:26;;;;;;;7.23;4.13;;;27.50;96.20;;;;;;5033715;28;20045;-61
2022/06/23 09:28:10;;;;;;;6.63;3.80;;;27.60;96.40;;;;;;5010017;28;20172;-62
2022/06/23 09:30:44;;;;;;;9.93;4.00;;;27.70;96.30;;;;;;5031376;28;20056;-61
2022/06/23 09:33:19;;;;;;;7.78;4.10;;;27.70;96.40;;;;;;5035812;28;20045;-61
2022/06/23 09:36:17;;;;;;;7.40;3.80;;;27.80;96.10;;;;;;5041185;28;20049;-61
2022/06/23 09:39:04;;;;;;;6.28;3.60;;;27.90;95.90;;;;;;5039506;28;20044;-63
2022/06/23 09:41:54;;;;;;;7.30;3.75;;;27.90;96.30;;;;;;5033993;28;20107;-61
2022/06/23 09:44:23;;;;;;;10.45;4.38;;;28.00;96.10;;;;;;5036952;28;20079;-61
2022/06/23 09:47:07;;;;;;;7.95;4.10;;;28.00;96.20;;;;;;5013323;28;20535;-62
2022/06/23 09:49:47;;;;;;;8.15;3.85;;;28.10;96.10;;;;;;5009275;28;20041;-61
2022/06/23 09:52:45;;;;;;;7.22;3.75;;;28.10;95.80;;;;;;5036756;28;20029;-62
2022/06/23 09:55:10;;;;;;;6.05;3.50;;;28.10;95.80;;;;;;5029598;28;20064;-61
2022/06/23 09:57:50;;;;;;;7.32;4.20;;;28.30;95.70;;;;;;5044017;28;20113;-61
2022/06/23 10:00:18;;;;;;;5.85;3.67;;;28.50;95.90;;;;;;5035932;28;20049;-61
2022/06/23 10:03:05;;;;;;;6.07;3.75;;;28.50;95.40;;;;;;5033538;28;20041;-61
2022/06/23 10:06:05;;;;;;;9.73;4.20;;;28.50;95.40;;;;;;5021729;28;20033;-61
2022/06/23 10:09:00;;;;;;;5.55;3.65;;;28.60;95.50;;;;;;5035197;28;20037;-63
2022/06/23 10:11:53;;;;;;;6.70;3.92;;;28.70;95.20;;;;;;5036982;28;20370;-62
2022/06/23 10:14:53;;;;;;;5.53;3.72;;;28.60;95.30;;;;;;5017289;28;20128;-62
2022/06/23 10:18:01;;;;;;;6.80;4.00;;;28.60;95.10;;;;;;5037911;28;20120;-63
2022/06/23 10:20:52;;;;;;;5.80;3.80;;;28.60;95.30;;;;;;5028057;28;20037;-62
2022/06/23 10:23:17;;;;;;;7.47;4.13;;;28.70;95.20;;;;;;5039007;28;20120;-61
2022/06/23 10:26:01;;;;;;;5.53;3.65;;;28.90;95.10;;;;;;5042734;28;20120;-62
2022/06/23 10:28:29;;;;;;;;;;;28.90;95.10;;;;;;5040961;28;20091;-62
2022/06/23 10:31:13;;;;;;;6.13;3.80;;;28.90;94.50;;;;;;5038992;28;20281;-62
2022/06/23 10:34:33;;;;;;;6.43;3.53;;;29.00;94.90;;;;;;5037102;28;20111;-61
2022/06/23 10:37:22;;;;;;;4.88;2.90;;;29.00;94.70;;;;;;4962398;28;20571;-62
2022/06/23 10:39:56;;;;;;;5.88;3.30;;;29.10;94.50;;;;;;5034342;28;20054;-63
2022/06/23 10:42:42;;;;;;;5.40;3.33;;;29.20;94.10;;;;;;5042248;28;20029;-65
2022/06/23 10:45:23;;;;;;;6.57;3.22;;;29.10;94.10;;;;;;5040695;28;20036;-62
2022/06/23 10:48:08;;;;;;;6.00;3.47;;;29.10;94.20;;;;;;5012598;28;20470;-62
2022/06/23 10:51:11;;;;;;;5.95;3.13;;;29.20;94.20;;;;;;4998713;28;20128;-62
2022/06/23 10:54:09;;;;;;;5.75;3.55;;;29.30;94.30;;;;;;5036314;28;20033;-62
2022/06/23 10:57:09;;;;;;;5.78;3.50;;;29.50;94.10;;;;;;5041457;28;20354;-62
2022/06/23 10:59:56;;;;;;;9.07;3.53;;;29.50;94.20;;;;;;5012355;28;20049;-62
2022/06/23 11:02:45;;;;;;;9.15;3.17;;;29.60;94.20;;;;;;5030667;28;20048;-62
2022/06/23 11:05:35;;;;;;;5.78;3.45;;;29.70;93.80;;;;;;5029819;28;20116;-62
2022/06/23 11:08:19;;;;;;;6.13;3.40;;;29.70;93.90;;;;;;5043760;28;20080;-62
2022/06/23 11:11:00;;;;;;;7.63;3.72;;;29.90;93.90;;;;;;5039147;28;20367;-62
2022/06/23 11:13:57;;;;;;;7.22;3.10;;;29.90;93.90;;;;;;5037424;28;20057;-61
2022/06/23 11:16:31;;;;;;;6.35;3.50;;;30.00;93.70;;;;;;5025932;28;20129;-62
2022/06/23 11:19:10;;;;;;;4.65;3.28;;;30.10;93.80;;;;;;5033915;28;20052;-62
2022/06/23 11:22:10;;;;;;;6.45;3.53;;;30.20;93.70;;;;;;5049203;28;20048;-63
2022/06/23 11:25:13;;;;;;;5.55;3.10;;;30.20;93.30;;;;;;5045789;28;20065;-64
2022/06/23 11:27:58;;;;;;;7.10;3.27;;;30.30;93.30;;;;;;5044585;28;20140;-64
2022/06/23 11:31:11;;;;;;;6.53;3.38;;;30.40;93.40;;;;;;5040994;28;20284;-66
2022/06/23 11:33:45;;;;;;;5.78;3.10;;;30.40;93.30;;;;;;4996203;28;20064;-64
2022/06/23 11:36:23;;;;;;;6.07;2.88;;;30.50;93.20;;;;;;5032652;28;20063;-63
2022/06/23 11:38:54;;;;;;;8.15;3.20;;;30.60;92.90;;;;;;5048304;28;20051;-64
2022/06/23 11:41:20;;;;;;;6.85;3.00;;;30.70;93.00;;;;;;5045692;28;20049;-64
2022/06/23 11:44:07;;;;;;;5.78;2.80;;;30.70;92.60;;;;;;5045820;28;20045;-64
2022/06/23 11:46:40;;;;;;;5.03;3.17;;;30.70;92.80;;;;;;5047885;28;20090;-64
2022/06/23 11:49:27;;;;;;;6.35;3.15;;;30.80;92.50;;;;;;5046192;28;20041;-64
2022/06/23 11:52:07;;;;;;;6.68;3.20;;;30.80;92.50;;;;;;5049391;28;20043;-64
2022/06/23 11:55:17;;;;;;;6.00;3.00;;;30.70;92.50;;;;;;5048119;28;20366;-64
2022/06/23 11:58:13;;;;;;;8.95;2.78;;;30.70;92.90;;;;;;4987368;28;20643;-64
2022/06/23 12:00:45;;;;;;;6.47;3.00;;;30.80;92.40;;;;;;5048626;28;20059;-63
2022/06/23 12:03:39;;;;;;;3.78;2.30;;;30.90;92.20;;;;;;5050460;28;20048;-63
2022/06/23 12:06:07;;;;;;;4.70;2.60;;;31.10;91.20;;;;;;5050674;28;20052;-63
2022/06/23 12:08:54;;;;;;;5.50;2.75;;;31.20;90.80;;;;;;5050164;28;20115;-64
2022/06/23 12:11:20;;;;;;;5.97;3.00;;;31.40;90.70;;;;;;5048147;28;20109;-65
2022/06/23 12:13:47;;;;;;;5.95;2.72;;;31.50;90.70;;;;;;5040077;28;20521;-63
2022/06/23 12:16:12;;;;;;;5.32;2.60;;;31.60;90.50;;;;;;5040920;28;20472;-63
2022/06/23 12:18:46;;;;;;;5.03;2.72;;;31.60;90.40;;;;;;5035814;28;20053;-62
2022/06/23 12:21:36;;;;;;;6.50;3.05;;;31.80;90.10;;;;;;5035848;28;20038;-63
2022/06/23 12:24:22;;;;;;;5.85;3.10;;;31.70;89.80;;;;;;5037964;28;20469;-62
2022/06/23 12:27:00;;;;;;;5.57;2.90;;;31.90;90.30;;;;;;5027439;28;20120;-64
2022/06/23 12:29:30;;;;;;;5.25;2.88;;;31.80;90.10;;;;;;5035816;28;20069;-63
2022/06/23 12:32:22;;;;;;;6.25;3.20;;;31.80;89.80;;;;;;5038901;28;20362;-63
2022/06/23 12:35:07;;;;;;;5.65;2.92;;;31.60;89.50;;;;;;5035238;28;20161;-63
2022/06/23 12:37:49;;;;;;;3.80;2.72;;;31.60;90.20;;;;;;5033846;28;20117;-62
2022/06/23 12:40:25;;;;;;;8.18;2.90;;;31.70;89.70;;;;;;5036157;28;20358;-63
2022/06/23 12:42:57;;;;;;;6.15;3.70;;;31.80;90.10;;;;;;5032719;28;20083;-64
2022/06/23 12:45:44;;;;;;;6.38;3.40;;;31.80;89.60;;;;;;5018362;28;20068;-64
2022/06/23 12:48:13;;;;;;;6.03;2.83;;;31.80;89.50;;;;;;5021308;28;20108;-64
2022/06/23 12:50:48;;;;;;;6.25;3.20;;;31.90;90.00;;;;;;5017813;28;20422;-64
2022/06/23 12:53:42;;;;;;;4.97;3.15;;;31.90;89.20;;;;;;5033446;28;20041;-64
2022/06/23 12:56:45;;;;;;;3.97;3.30;;;32.00;89.70;;;;;;5033006;28;20432;-65
2022/06/23 12:59:46;;;;;;;7.90;3.55;;;32.10;89.80;;;;;;5034661;28;20057;-63
2022/06/23 13:02:16;;;;;;;5.43;3.25;;;32.10;89.60;;;;;;5039812;28;20052;-63
2022/06/23 13:04:58;;;;;;;5.50;3.50;;;32.20;89.90;;;;;;5036200;28;20123;-63
2022/06/23 13:07:33;;;;;;;4.70;3.47;;;32.20;89.00;;;;;;5036611;28;20029;-64
2022/06/23 13:10:16;;;;;;;6.72;3.22;;;32.20;89.30;;;;;;5021138;28;20063;-63
2022/06/23 13:13:12;;;;;;;4.88;3.35;;;32.10;89.00;;;;;;5035992;28;20115;-63
2022/06/23 13:15:56;;;;;;;5.10;3.10;;;32.30;89.60;;;;;;5037438;28;20143;-63
2022/06/23 13:18:25;;;;;;;7.22;3.80;;;32.30;89.10;;;;;;5037887;28;20033;-65
2022/06/23 13:21:04;;;;;;;6.45;3.55;;;32.30;89.60;;;;;;5022957;28;20386;-64
2022/06/23 13:24:15;;;;;;;6.97;3.90;;;32.30;89.30;;;;;;5026568;28;20347;-64
2022/06/23 13:26:52;;;;;;;5.20;3.30;;;32.40;89.20;;;;;;5024166;28;20036;-64
2022/06/23 13:29:22;;;;;;;5.40;3.20;;;32.30;88.60;;;;;;5024731;28;20073;-64
2022/06/23 13:32:00;;;;;;;7.10;3.40;;;32.30;88.20;;;;;;5028308;28;20044;-66
2022/06/23 13:34:32;;;;;;;7.05;3.20;;;32.20;88.40;;;;;;5028160;28;20120;-65
2022/06/23 13:37:12;;;;;;;5.63;3.70;;;32.20;89.20;;;;;;5025170;28;20409;-64
2022/06/23 13:39:52;;;;;;;5.63;3.67;;;32.20;88.90;;;;;;5027786;28;20322;-65
2022/06/23 13:42:38;;;;;;;5.07;3.80;;;32.20;89.30;;;;;;5027978;28;20025;-65
2022/06/23 13:45:30;;;;;;;7.63;3.78;;;32.10;89.30;;;;;;5026223;28;20049;-64
2022/06/23 13:48:15;;;;;;;6.85;3.70;;;32.20;89.90;;;;;;5027431;28;20088;-64
2022/06/23 13:50:49;;;;;;;7.65;4.00;;;32.30;89.60;;;;;;5028061;28;20041;-64
2022/06/23 13:53:34;;;;;;;6.38;3.63;;;32.30;89.20;;;;;;5025605;28;20081;-62
2022/06/23 13:56:05;;;;;;;5.90;3.65;;;32.40;89.70;;;;;;5025449;28;20068;-62
2022/06/23 13:58:55;;;;;;;6.45;3.65;;;32.40;89.10;;;;;;5028439;28;20149;-62